sensor_id;sensor_type;location;lat;lon;timestamp;pressure;altitude;pressure_sealevel;temperature;humidity
46199;BME280;31928;52.104;10.030;2022-09-01T03:29:24;101190.22;;;18.09;44.10
46199;BME280;31928;52.104;10.030;2022-09-01T03:31:50;101186.38;;;17.94;45.50
46199;BME280;31928;52.104;10.030;2022-09-01T03:34:17;101188.41;;;17.87;45.64
46199;BME280;31928;52.104;10.030;2022-09-01T03:36:46;101184.53;;;17.83;45.23
46199;BME280;31928;52.104;10.030;2022-09-01T03:39:17;101190.41;;;17.80;46.81
46199;BME280;31928;52.104;10.030;2022-09-01T03:41:44;101184.66;;;17.76;46.43
46199;BME280;31928;52.104;10.030;2022-09-01T03:44:13;101183.63;;;17.77;45.76
46199;BME280;31928;52.104;10.030;2022-09-01T03:46:42;101185.97;;;17.74;46.67
46199;BME280;31928;52.104;10.030;2022-09-01T03:49:10;101188.94;;;17.72;47.52
46199;BME280;31928;52.104;10.030;2022-09-01T03:51:44;101181.72;;;17.78;46.59
46199;BME280;31928;52.104;10.030;2022-09-01T03:54:11;101182.78;;;17.77;45.62
46199;BME280;31928;52.104;10.030;2022-09-01T03:56:38;101174.06;;;17.75;47.79
46199;BME280;31928;52.104;10.030;2022-09-01T03:59:08;101187.38;;;17.76;47.61
46199;BME280;31928;52.104;10.030;2022-09-01T04:01:43;101182.53;;;17.78;46.60
46199;BME280;31928;52.104;10.030;2022-09-01T04:04:11;101179.56;;;17.80;47.33
46199;BME280;31928;52.104;10.030;2022-09-01T04:06:42;101184.78;;;17.81;47.85
46199;BME280;31928;52.104;10.030;2022-09-01T04:09:09;101184.28;;;17.84;48.29
46199;BME280;31928;52.104;10.030;2022-09-01T04:11:36;101186.50;;;17.87;51.92
46199;BME280;31928;52.104;10.030;2022-09-01T04:14:11;101190.63;;;17.90;52.02
46199;BME280;31928;52.104;10.030;2022-09-01T04:16:38;101190.50;;;17.96;51.04
46199;BME280;31928;52.104;10.030;2022-09-01T04:19:25;101188.25;;;18.05;50.31
46199;BME280;31928;52.104;10.030;2022-09-01T04:21:55;101185.13;;;18.12;49.46
46199;BME280;31928;52.104;10.030;2022-09-01T04:24:23;101192.34;;;18.18;49.06
46199;BME280;31928;52.104;10.030;2022-09-01T04:26:51;101190.06;;;18.27;48.85
46199;BME280;31928;52.104;10.030;2022-09-01T04:29:19;101195.09;;;18.35;47.99
46199;BME280;31928;52.104;10.030;2022-09-01T04:32:00;101191.88;;;18.49;46.99
46199;BME280;31928;52.104;10.030;2022-09-01T04:34:33;101190.88;;;18.55;46.56
46199;BME280;31928;52.104;10.030;2022-09-01T04:37:12;101185.13;;;18.68;45.32
46199;BME280;31928;52.104;10.030;2022-09-01T04:39:40;101187.38;;;18.71;46.19
46199;BME280;31928;52.104;10.030;2022-09-01T04:42:19;101189.91;;;18.77;46.22
46199;BME280;31928;52.104;10.030;2022-09-01T04:44:50;101193.53;;;18.83;45.50
46199;BME280;31928;52.104;10.030;2022-09-01T04:47:19;101200.72;;;18.89;45.84
46199;BME280;31928;52.104;10.030;2022-09-01T04:50:03;101200.31;;;18.97;44.74
46199;BME280;31928;52.104;10.030;2022-09-01T04:52:31;101201.44;;;19.01;44.49
46199;BME280;31928;52.104;10.030;2022-09-01T04:54:57;101203.91;;;19.35;42.52
46199;BME280;31928;52.104;10.030;2022-09-01T04:57:24;101207.66;;;19.13;44.96
46199;BME280;31928;52.104;10.030;2022-09-01T04:59:53;101203.63;;;19.15;44.93
46199;BME280;31928;52.104;10.030;2022-09-01T05:02:22;101203.94;;;19.19;44.57
46199;BME280;31928;52.104;10.030;2022-09-01T05:04:52;101191.75;;;19.21;44.08
46199;BME280;31928;52.104;10.030;2022-09-01T05:07:24;101197.50;;;19.25;43.26
46199;BME280;31928;52.104;10.030;2022-09-01T05:09:50;101204.03;;;19.61;41.65
46199;BME280;31928;52.104;10.030;2022-09-01T05:12:26;101198.00;;;19.38;43.32
46199;BME280;31928;52.104;10.030;2022-09-01T05:14:53;101204.25;;;19.38;43.00
46199;BME280;31928;52.104;10.030;2022-09-01T05:17:21;101196.66;;;19.40;42.92
46199;BME280;31928;52.104;10.030;2022-09-01T05:19:48;101203.25;;;19.44;42.53
46199;BME280;31928;52.104;10.030;2022-09-01T05:22:16;101198.38;;;19.46;42.52
46199;BME280;31928;52.104;10.030;2022-09-01T05:24:48;101201.69;;;19.48;42.51
46199;BME280;31928;52.104;10.030;2022-09-01T05:27:20;101198.44;;;19.51;42.77
46199;BME280;31928;52.104;10.030;2022-09-01T05:29:48;101206.34;;;19.53;43.36
46199;BME280;31928;52.104;10.030;2022-09-01T05:32:16;101201.25;;;19.56;43.47
46199;BME280;31928;52.104;10.030;2022-09-01T05:34:42;101196.53;;;19.89;41.38
46199;BME280;31928;52.104;10.030;2022-09-01T05:37:10;101188.84;;;19.65;41.90
46199;BME280;31928;52.104;10.030;2022-09-01T05:39:39;101204.38;;;19.65;40.74
46199;BME280;31928;52.104;10.030;2022-09-01T05:42:06;101199.34;;;19.94;40.39
46199;BME280;31928;52.104;10.030;2022-09-01T05:44:35;101204.53;;;19.58;40.57
46199;BME280;31928;52.104;10.030;2022-09-01T05:47:02;101201.03;;;19.41;40.73
46199;BME280;31928;52.104;10.030;2022-09-01T05:49:31;101200.81;;;19.27;41.02
46199;BME280;31928;52.104;10.030;2022-09-01T05:51:58;101201.66;;;19.11;41.70
46199;BME280;31928;52.104;10.030;2022-09-01T05:54:25;101207.34;;;18.98;42.29
46199;BME280;31928;52.104;10.030;2022-09-01T05:56:55;101202.50;;;18.83;42.26
46199;BME280;31928;52.104;10.030;2022-09-01T05:59:44;101203.06;;;18.69;43.04
46199;BME280;31928;52.104;10.030;2022-09-01T06:02:12;101195.81;;;18.58;43.23
46199;BME280;31928;52.104;10.030;2022-09-01T06:04:39;101200.00;;;18.49;43.59
46199;BME280;31928;52.104;10.030;2022-09-01T06:07:06;101207.72;;;18.41;44.19
46199;BME280;31928;52.104;10.030;2022-09-01T06:09:42;101205.97;;;18.35;44.60
46199;BME280;31928;52.104;10.030;2022-09-01T06:12:10;101207.19;;;18.27;45.19
46199;BME280;31928;52.104;10.030;2022-09-01T06:14:45;101207.09;;;18.22;45.02
46199;BME280;31928;52.104;10.030;2022-09-01T06:17:12;101208.88;;;18.17;45.62
46199;BME280;31928;52.104;10.030;2022-09-01T06:19:42;101211.69;;;18.10;45.67
46199;BME280;31928;52.104;10.030;2022-09-01T06:22:10;101216.19;;;18.05;45.72
46199;BME280;31928;52.104;10.030;2022-09-01T06:24:38;101210.66;;;18.00;45.60
46199;BME280;31928;52.104;10.030;2022-09-01T06:27:10;101201.59;;;17.95;45.54
46199;BME280;31928;52.104;10.030;2022-09-01T06:29:37;101203.16;;;17.91;46.85
46199;BME280;31928;52.104;10.030;2022-09-01T06:32:08;101205.25;;;17.89;46.85
46199;BME280;31928;52.104;10.030;2022-09-01T06:34:40;101206.34;;;17.88;47.04
46199;BME280;31928;52.104;10.030;2022-09-01T06:37:16;101212.84;;;17.87;47.23
46199;BME280;31928;52.104;10.030;2022-09-01T06:39:48;101205.50;;;17.87;47.39
46199;BME280;31928;52.104;10.030;2022-09-01T06:42:15;101212.34;;;17.90;47.52
46199;BME280;31928;52.104;10.030;2022-09-01T06:44:42;101204.81;;;17.92;47.64
46199;BME280;31928;52.104;10.030;2022-09-01T06:47:09;101208.00;;;18.28;43.92
46199;BME280;31928;52.104;10.030;2022-09-01T06:49:35;101213.47;;;18.05;47.17
46199;BME280;31928;52.104;10.030;2022-09-01T06:52:05;101214.88;;;18.07;47.89
46199;BME280;31928;52.104;10.030;2022-09-01T06:54:32;101216.06;;;18.11;48.19
46199;BME280;31928;52.104;10.030;2022-09-01T06:57:01;101211.78;;;18.15;48.08
46199;BME280;31928;52.104;10.030;2022-09-01T06:59:49;101219.56;;;18.23;47.73
46199;BME280;31928;52.104;10.030;2022-09-01T07:02:19;101215.66;;;18.31;49.35
46199;BME280;31928;52.104;10.030;2022-09-01T07:04:52;101217.97;;;18.39;49.75
46199;BME280;31928;52.104;10.030;2022-09-01T07:07:18;101219.47;;;18.46;50.69
46199;BME280;31928;52.104;10.030;2022-09-01T07:10:05;101232.19;;;18.57;49.90
46199;BME280;31928;52.104;10.030;2022-09-01T07:12:51;101224.81;;;18.69;49.83
46199;BME280;31928;52.104;10.030;2022-09-01T07:15:38;101221.53;;;18.83;49.07
46199;BME280;31928;52.104;10.030;2022-09-01T07:18:27;101226.31;;;18.93;49.75
46199;BME280;31928;52.104;10.030;2022-09-01T07:20:54;101227.06;;;19.05;50.07
46199;BME280;31928;52.104;10.030;2022-09-01T07:23:41;101228.16;;;19.20;49.75
46199;BME280;31928;52.104;10.030;2022-09-01T07:26:14;101227.00;;;19.32;49.12
46199;BME280;31928;52.104;10.030;2022-09-01T07:28:52;101234.56;;;19.47;49.34
46199;BME280;31928;52.104;10.030;2022-09-01T07:31:29;101233.97;;;19.61;49.52
46199;BME280;31928;52.104;10.030;2022-09-01T07:34:17;101230.38;;;19.77;48.10
46199;BME280;31928;52.104;10.030;2022-09-01T07:37:04;101223.84;;;19.94;47.64
46199;BME280;31928;52.104;10.030;2022-09-01T07:39:51;101234.69;;;20.11;46.97
46199;BME280;31928;52.104;10.030;2022-09-01T07:42:19;101230.72;;;20.23;46.56
46199;BME280;31928;52.104;10.030;2022-09-01T07:45:07;101233.38;;;20.40;46.14
46199;BME280;31928;52.104;10.030;2022-09-01T07:47:52;101235.69;;;20.52;45.59
46199;BME280;31928;52.104;10.030;2022-09-01T07:50:19;101238.25;;;20.64;46.03
46199;BME280;31928;52.104;10.030;2022-09-01T07:53:05;101238.94;;;20.76;45.75
46199;BME280;31928;52.104;10.030;2022-09-01T07:55:34;101239.88;;;20.86;45.83
46199;BME280;31928;52.104;10.030;2022-09-01T07:58:00;101231.25;;;20.99;45.24
46199;BME280;31928;52.104;10.030;2022-09-01T08:00:27;101229.19;;;21.11;45.28
46199;BME280;31928;52.104;10.030;2022-09-01T08:02:57;101235.88;;;21.25;45.16
46199;BME280;31928;52.104;10.030;2022-09-01T08:05:24;101231.03;;;21.37;44.36
46199;BME280;31928;52.104;10.030;2022-09-01T08:07:53;101247.22;;;21.48;44.36
46199;BME280;31928;52.104;10.030;2022-09-01T08:10:20;101241.34;;;21.61;43.76
46199;BME280;31928;52.104;10.030;2022-09-01T08:12:47;101230.47;;;21.71;43.80
46199;BME280;31928;52.104;10.030;2022-09-01T08:15:22;101240.09;;;21.83;43.04
46199;BME280;31928;52.104;10.030;2022-09-01T08:18:07;101239.59;;;21.96;42.87
46199;BME280;31928;52.104;10.030;2022-09-01T08:20:37;101225.47;;;22.09;43.08
46199;BME280;31928;52.104;10.030;2022-09-01T08:23:05;101233.69;;;22.19;42.70
46199;BME280;31928;52.104;10.030;2022-09-01T08:25:34;101233.22;;;22.32;42.61
46199;BME280;31928;52.104;10.030;2022-09-01T08:28:01;101243.34;;;22.41;42.20
46199;BME280;31928;52.104;10.030;2022-09-01T08:30:29;101240.13;;;22.49;41.31
46199;BME280;31928;52.104;10.030;2022-09-01T08:32:58;101240.97;;;22.60;41.45
46199;BME280;31928;52.104;10.030;2022-09-01T08:35:38;101239.34;;;22.69;40.57
46199;BME280;31928;52.104;10.030;2022-09-01T08:38:04;101242.91;;;22.74;40.63
46199;BME280;31928;52.104;10.030;2022-09-01T08:40:31;101246.47;;;22.80;40.78
46199;BME280;31928;52.104;10.030;2022-09-01T08:43:16;101239.38;;;22.94;40.82
46199;BME280;31928;52.104;10.030;2022-09-01T08:45:48;101236.06;;;22.96;40.76
46199;BME280;31928;52.104;10.030;2022-09-01T08:48:41;101231.22;;;23.03;40.70
46199;BME280;31928;52.104;10.030;2022-09-01T08:52:14;101235.56;;;23.29;40.53
46199;BME280;31928;52.104;10.030;2022-09-01T08:54:44;101232.28;;;23.37;39.66
46199;BME280;31928;52.104;10.030;2022-09-01T08:59:45;101233.34;;;23.56;39.20
46199;BME280;31928;52.104;10.030;2022-09-01T09:07:48;101229.47;;;23.92;39.04
46199;BME280;31928;52.104;10.030;2022-09-01T09:16:42;101233.63;;;24.47;38.47
46199;BME280;31928;52.104;10.030;2022-09-01T09:19:16;101238.47;;;24.60;38.13
46199;BME280;31928;52.104;10.030;2022-09-01T09:21:46;101226.28;;;24.76;37.82
46199;BME280;31928;52.104;10.030;2022-09-01T09:24:22;101230.56;;;24.92;37.64
46199;BME280;31928;52.104;10.030;2022-09-01T09:26:57;101228.28;;;25.09;37.11
46199;BME280;31928;52.104;10.030;2022-09-01T09:29:24;101228.72;;;25.21;36.59
46199;BME280;31928;52.104;10.030;2022-09-01T09:32:05;101221.91;;;25.42;37.34
46199;BME280;31928;52.104;10.030;2022-09-01T09:34:48;101215.22;;;25.52;36.24
46199;BME280;31928;52.104;10.030;2022-09-01T09:37:28;101218.31;;;25.74;37.06
46199;BME280;31928;52.104;10.030;2022-09-01T09:40:23;101219.72;;;25.95;37.04
46199;BME280;31928;52.104;10.030;2022-09-01T09:45:22;101210.09;;;26.16;34.40
46199;BME280;31928;52.104;10.030;2022-09-01T09:47:50;101208.56;;;26.28;34.62
46199;BME280;31928;52.104;10.030;2022-09-01T09:50:21;101210.03;;;26.44;34.83
46199;BME280;31928;52.104;10.030;2022-09-01T09:52:51;101206.25;;;26.59;33.62
46199;BME280;31928;52.104;10.030;2022-09-01T09:55:29;101200.50;;;26.73;33.60
46199;BME280;31928;52.104;10.030;2022-09-01T09:58:00;101206.91;;;26.87;33.61
46199;BME280;31928;52.104;10.030;2022-09-01T10:00:35;101202.91;;;26.98;31.54
46199;BME280;31928;52.104;10.030;2022-09-01T10:03:03;101191.19;;;27.06;31.21
46199;BME280;31928;52.104;10.030;2022-09-01T10:05:44;101197.03;;;27.18;31.82
46199;BME280;31928;52.104;10.030;2022-09-01T10:11:04;101191.19;;;27.38;30.29
46199;BME280;31928;52.104;10.030;2022-09-01T10:13:33;101202.00;;;27.48;30.21
46199;BME280;31928;52.104;10.030;2022-09-01T10:16:14;101192.97;;;27.61;30.61
46199;BME280;31928;52.104;10.030;2022-09-01T10:18:47;101193.91;;;27.70;30.15
46199;BME280;31928;52.104;10.030;2022-09-01T10:23:47;101187.38;;;27.92;29.01
46199;BME280;31928;52.104;10.030;2022-09-01T10:26:18;101182.44;;;28.03;30.17
46199;BME280;31928;52.104;10.030;2022-09-01T10:29:07;101176.34;;;28.19;31.33
46199;BME280;31928;52.104;10.030;2022-09-01T10:31:41;101166.31;;;28.23;29.00
46199;BME280;31928;52.104;10.030;2022-09-01T10:34:14;101173.75;;;28.36;30.13
46199;BME280;31928;52.104;10.030;2022-09-01T10:36:46;101170.25;;;28.44;29.71
46199;BME280;31928;52.104;10.030;2022-09-01T10:39:22;101166.94;;;28.55;28.20
46199;BME280;31928;52.104;10.030;2022-09-01T10:42:00;101164.75;;;28.66;28.11
46199;BME280;31928;52.104;10.030;2022-09-01T10:44:54;101162.78;;;28.80;29.59
46199;BME280;31928;52.104;10.030;2022-09-01T10:47:31;101160.53;;;28.82;26.87
46199;BME280;31928;52.104;10.030;2022-09-01T10:50:03;101158.66;;;28.91;26.84
46199;BME280;31928;52.104;10.030;2022-09-01T10:55:15;101154.13;;;29.16;27.25
46199;BME280;31928;52.104;10.030;2022-09-01T11:04:16;101151.22;;;29.52;26.19
46199;BME280;31928;52.104;10.030;2022-09-01T11:06:51;101139.72;;;29.58;25.87
46199;BME280;31928;52.104;10.030;2022-09-01T11:09:43;101150.34;;;29.73;26.71
46199;BME280;31928;52.104;10.030;2022-09-01T11:15:06;101152.22;;;29.86;25.50
46199;BME280;31928;52.104;10.030;2022-09-01T11:20:37;101147.03;;;30.10;27.21
46199;BME280;31928;52.104;10.030;2022-09-01T11:25:42;101148.34;;;30.12;25.93
46199;BME280;31928;52.104;10.030;2022-09-01T11:33:45;101132.78;;;30.41;24.88
46199;BME280;31928;52.104;10.030;2022-09-01T11:41:42;101134.56;;;30.71;26.44
46199;BME280;31928;52.104;10.030;2022-09-01T11:46:58;101132.59;;;30.89;24.32
46199;BME280;31928;52.104;10.030;2022-09-01T11:49:36;101132.44;;;31.02;24.72
46199;BME280;31928;52.104;10.030;2022-09-01T11:52:05;101126.09;;;31.10;22.65
46199;BME280;31928;52.104;10.030;2022-09-01T11:54:42;101128.28;;;31.25;23.97
46199;BME280;31928;52.104;10.030;2022-09-01T11:57:22;101117.84;;;31.30;23.89
46199;BME280;31928;52.104;10.030;2022-09-01T11:59:50;101120.47;;;31.27;21.64
46199;BME280;31928;52.104;10.030;2022-09-01T12:02:41;101124.88;;;31.28;21.41
46199;BME280;31928;52.104;10.030;2022-09-01T12:07:53;101117.47;;;31.40;22.39
46199;BME280;31928;52.104;10.030;2022-09-01T12:10:38;101119.41;;;31.57;24.49
46199;BME280;31928;52.104;10.030;2022-09-01T12:15:35;101125.72;;;31.65;22.09
46199;BME280;31928;52.104;10.030;2022-09-01T12:18:24;101115.56;;;31.98;25.83
46199;BME280;31928;52.104;10.030;2022-09-01T12:20:54;101110.88;;;31.90;21.88
46199;BME280;31928;52.104;10.030;2022-09-01T12:23:26;101108.91;;;31.99;22.36
46199;BME280;31928;52.104;10.030;2022-09-01T12:25:56;101112.28;;;32.05;21.29
46199;BME280;31928;52.104;10.030;2022-09-01T12:28:27;101111.44;;;32.13;21.71
46199;BME280;31928;52.104;10.030;2022-09-01T12:31:03;101105.81;;;32.21;22.12
46199;BME280;31928;52.104;10.030;2022-09-01T12:33:33;101099.59;;;32.24;21.33
46199;BME280;31928;52.104;10.030;2022-09-01T12:36:29;101114.47;;;32.40;23.45
46199;BME280;31928;52.104;10.030;2022-09-01T12:39:20;101103.63;;;32.47;23.33
46199;BME280;31928;52.104;10.030;2022-09-01T12:42:09;101109.34;;;32.50;23.12
46199;BME280;31928;52.104;10.030;2022-09-01T12:47:06;101095.75;;;32.37;21.20
46199;BME280;31928;52.104;10.030;2022-09-01T12:49:41;101098.50;;;32.37;21.98
46199;BME280;31928;52.104;10.030;2022-09-01T12:55:08;101102.56;;;32.19;22.80
46199;BME280;31928;52.104;10.030;2022-09-01T12:57:40;101101.41;;;31.91;21.27
46199;BME280;31928;52.104;10.030;2022-09-01T13:00:31;101098.03;;;31.86;22.56
46199;BME280;31928;52.104;10.030;2022-09-01T13:08:21;101089.41;;;31.50;22.75
46199;BME280;31928;52.104;10.030;2022-09-01T13:10:51;101089.31;;;31.30;21.46
46199;BME280;31928;52.104;10.030;2022-09-01T13:13:19;101086.78;;;31.16;21.71
46199;BME280;31928;52.104;10.030;2022-09-01T13:15:49;101074.56;;;31.09;21.50
46199;BME280;31928;52.104;10.030;2022-09-01T13:18:17;101078.97;;;31.10;22.06
46199;BME280;31928;52.104;10.030;2022-09-01T13:20:44;101067.38;;;31.16;21.77
46199;BME280;31928;52.104;10.030;2022-09-01T13:23:11;101074.34;;;31.22;21.60
46199;BME280;31928;52.104;10.030;2022-09-01T13:25:39;101064.56;;;31.25;21.33
46199;BME280;31928;52.104;10.030;2022-09-01T13:28:06;101074.50;;;31.26;21.31
46199;BME280;31928;52.104;10.030;2022-09-01T13:30:34;101069.63;;;31.23;21.23
46199;BME280;31928;52.104;10.030;2022-09-01T13:33:00;101062.13;;;31.23;21.68
46199;BME280;31928;52.104;10.030;2022-09-01T13:35:45;101060.78;;;31.29;21.27
46199;BME280;31928;52.104;10.030;2022-09-01T13:38:16;101058.66;;;31.35;21.25
46199;BME280;31928;52.104;10.030;2022-09-01T13:40:44;101054.06;;;31.39;21.15
46199;BME280;31928;52.104;10.030;2022-09-01T13:43:13;101055.50;;;31.45;21.16
46199;BME280;31928;52.104;10.030;2022-09-01T13:45:41;101058.13;;;31.50;21.21
46199;BME280;31928;52.104;10.030;2022-09-01T13:48:11;101055.63;;;31.57;20.54
46199;BME280;31928;52.104;10.030;2022-09-01T13:50:44;101040.72;;;31.61;21.09
46199;BME280;31928;52.104;10.030;2022-09-01T13:53:31;101043.47;;;31.69;21.24
46199;BME280;31928;52.104;10.030;2022-09-01T13:55:58;101043.72;;;31.76;20.98
46199;BME280;31928;52.104;10.030;2022-09-01T13:58:25;101040.44;;;31.83;20.58
46199;BME280;31928;52.104;10.030;2022-09-01T14:00:51;101040.22;;;31.88;20.29
46199;BME280;31928;52.104;10.030;2022-09-01T14:03:20;101039.69;;;31.94;20.63
46199;BME280;31928;52.104;10.030;2022-09-01T14:05:49;101043.94;;;32.00;20.66
46199;BME280;31928;52.104;10.030;2022-09-01T14:08:18;101040.97;;;32.05;20.26
46199;BME280;31928;52.104;10.030;2022-09-01T14:10:47;101034.72;;;32.08;20.24
46199;BME280;31928;52.104;10.030;2022-09-01T14:13:17;101036.22;;;32.06;20.07
46199;BME280;31928;52.104;10.030;2022-09-01T14:15:44;101029.38;;;32.03;20.46
46199;BME280;31928;52.104;10.030;2022-09-01T14:18:12;101033.31;;;32.02;20.09
46199;BME280;31928;52.104;10.030;2022-09-01T14:20:43;101028.91;;;32.01;20.14
46199;BME280;31928;52.104;10.030;2022-09-01T14:23:12;101028.09;;;32.01;20.29
46199;BME280;31928;52.104;10.030;2022-09-01T14:25:44;101021.19;;;32.07;20.90
46199;BME280;31928;52.104;10.030;2022-09-01T14:28:12;101020.38;;;32.06;20.40
46199;BME280;31928;52.104;10.030;2022-09-01T14:30:42;101014.94;;;32.10;20.65
46199;BME280;31928;52.104;10.030;2022-09-01T14:33:09;101016.72;;;32.14;20.62
46199;BME280;31928;52.104;10.030;2022-09-01T14:35:42;101017.47;;;32.23;21.22
46199;BME280;31928;52.104;10.030;2022-09-01T14:38:11;101015.97;;;32.26;20.51
46199;BME280;31928;52.104;10.030;2022-09-01T14:40:39;101022.13;;;32.31;20.55
46199;BME280;31928;52.104;10.030;2022-09-01T14:43:09;101008.03;;;32.36;20.01
46199;BME280;31928;52.104;10.030;2022-09-01T14:45:37;101017.63;;;32.38;19.54
46199;BME280;31928;52.104;10.030;2022-09-01T14:48:04;101017.63;;;32.38;19.62
46199;BME280;31928;52.104;10.030;2022-09-01T14:50:31;101013.59;;;32.36;19.78
46199;BME280;31928;52.104;10.030;2022-09-01T14:52:59;101015.06;;;32.33;19.80
46199;BME280;31928;52.104;10.030;2022-09-01T14:55:28;101013.31;;;32.29;20.23
46199;BME280;31928;52.104;10.030;2022-09-01T14:57:56;101010.75;;;32.24;20.36
46199;BME280;31928;52.104;10.030;2022-09-01T15:00:23;101009.13;;;32.23;20.30
46199;BME280;31928;52.104;10.030;2022-09-01T15:02:52;101003.59;;;32.23;20.29
46199;BME280;31928;52.104;10.030;2022-09-01T15:05:19;101004.72;;;32.22;20.25
46199;BME280;31928;52.104;10.030;2022-09-01T15:07:46;100998.81;;;32.24;20.17
46199;BME280;31928;52.104;10.030;2022-09-01T15:10:15;100998.13;;;32.26;20.47
46199;BME280;31928;52.104;10.030;2022-09-01T15:12:52;100994.22;;;32.27;19.94
46199;BME280;31928;52.104;10.030;2022-09-01T15:15:19;100991.09;;;32.29;19.37
46199;BME280;31928;52.104;10.030;2022-09-01T15:17:46;100993.41;;;32.27;19.36
46199;BME280;31928;52.104;10.030;2022-09-01T15:20:12;100987.38;;;32.25;19.83
46199;BME280;31928;52.104;10.030;2022-09-01T15:23:00;100987.88;;;32.27;19.97
46199;BME280;31928;52.104;10.030;2022-09-01T15:25:26;100987.28;;;32.22;19.41
46199;BME280;31928;52.104;10.030;2022-09-01T15:27:53;100982.72;;;32.17;19.41
46199;BME280;31928;52.104;10.030;2022-09-01T15:30:21;100980.84;;;32.09;19.62
46199;BME280;31928;52.104;10.030;2022-09-01T15:32:51;100980.59;;;32.02;19.94
46199;BME280;31928;52.104;10.030;2022-09-01T15:35:19;100977.72;;;31.90;19.68
46199;BME280;31928;52.104;10.030;2022-09-01T15:37:48;100973.38;;;31.81;19.38
46199;BME280;31928;52.104;10.030;2022-09-01T15:40:16;100974.63;;;31.71;19.58
46199;BME280;31928;52.104;10.030;2022-09-01T15:42:44;100984.47;;;31.61;19.53
46199;BME280;31928;52.104;10.030;2022-09-01T15:45:14;100977.38;;;31.51;20.04
46199;BME280;31928;52.104;10.030;2022-09-01T15:47:41;100971.56;;;31.36;19.83
46199;BME280;31928;52.104;10.030;2022-09-01T15:50:12;100977.50;;;31.26;20.04
46199;BME280;31928;52.104;10.030;2022-09-01T15:52:48;100971.00;;;31.22;20.01
46199;BME280;31928;52.104;10.030;2022-09-01T15:55:24;100970.19;;;31.21;19.97
46199;BME280;31928;52.104;10.030;2022-09-01T15:57:51;100965.81;;;31.12;19.77
46199;BME280;31928;52.104;10.030;2022-09-01T16:00:23;100962.44;;;31.06;20.14
46199;BME280;31928;52.104;10.030;2022-09-01T16:03:28;100965.91;;;31.24;21.00
46199;BME280;31928;52.104;10.030;2022-09-01T16:06:20;100961.72;;;31.18;21.17
46199;BME280;31928;52.104;10.030;2022-09-01T16:08:47;100953.69;;;30.96;19.71
46199;BME280;31928;52.104;10.030;2022-09-01T16:11:17;100962.63;;;30.93;19.59
46199;BME280;31928;52.104;10.030;2022-09-01T16:14:01;100958.25;;;30.92;19.48
46199;BME280;31928;52.104;10.030;2022-09-01T16:22:24;100958.94;;;30.81;20.77
46199;BME280;31928;52.104;10.030;2022-09-01T16:24:54;100964.22;;;30.57;20.14
46199;BME280;31928;52.104;10.030;2022-09-01T16:27:30;100961.78;;;30.55;20.50
46199;BME280;31928;52.104;10.030;2022-09-01T16:30:04;100953.19;;;30.48;20.72
46199;BME280;31928;52.104;10.030;2022-09-01T16:32:31;100948.31;;;30.37;20.88
46199;BME280;31928;52.104;10.030;2022-09-01T16:35:00;100957.56;;;30.33;21.23
46199;BME280;31928;52.104;10.030;2022-09-01T16:43:05;100949.28;;;30.33;21.56
46199;BME280;31928;52.104;10.030;2022-09-01T16:46:15;100956.78;;;30.24;21.58
46199;BME280;31928;52.104;10.030;2022-09-01T16:48:58;100950.44;;;30.23;21.64
46199;BME280;31928;52.104;10.030;2022-09-01T16:52:03;100950.44;;;30.15;21.91
46199;BME280;31928;52.104;10.030;2022-09-01T16:59:58;100947.56;;;29.86;22.01
46199;BME280;31928;52.104;10.030;2022-09-01T17:05:25;100949.16;;;29.70;21.93
46199;BME280;31928;52.104;10.030;2022-09-01T17:12:52;100948.28;;;29.44;21.85
46199;BME280;31928;52.104;10.030;2022-09-01T17:15:33;100946.53;;;29.48;22.17
46199;BME280;31928;52.104;10.030;2022-09-01T17:18:16;100951.50;;;29.29;22.15
46199;BME280;31928;52.104;10.030;2022-09-01T17:20:53;100948.56;;;29.26;22.30
46199;BME280;31928;52.104;10.030;2022-09-01T17:23:27;100951.31;;;29.17;22.62
46199;BME280;31928;52.104;10.030;2022-09-01T17:26:13;100956.84;;;29.17;22.91
46199;BME280;31928;52.104;10.030;2022-09-01T17:32:07;100946.03;;;28.91;22.95
46199;BME280;31928;52.104;10.030;2022-09-01T17:34:52;100958.63;;;28.75;23.55
46199;BME280;31928;52.104;10.030;2022-09-01T17:37:28;100961.59;;;28.56;23.38
46199;BME280;31928;52.104;10.030;2022-09-01T17:45:39;100964.16;;;28.09;24.31
46199;BME280;31928;52.104;10.030;2022-09-01T17:48:27;100964.69;;;28.11;23.99
46199;BME280;31928;52.104;10.030;2022-09-01T17:57:27;100972.41;;;27.66;24.31
46199;BME280;31928;52.104;10.030;2022-09-01T17:59:44;100956.72;;;27.39;24.82
46199;BME280;31928;52.104;10.030;2022-09-01T18:10:28;100973.34;;;26.94;25.32
46199;BME280;31928;52.104;10.030;2022-09-01T18:13:01;100976.09;;;26.81;25.80
46199;BME280;31928;52.104;10.030;2022-09-01T18:15:40;100979.84;;;26.71;26.06
46199;BME280;31928;52.104;10.030;2022-09-01T18:21:01;100973.19;;;26.46;26.35
46199;BME280;31928;52.104;10.030;2022-09-01T18:23:30;100979.81;;;26.26;26.52
46199;BME280;31928;52.104;10.030;2022-09-01T18:26:19;100976.97;;;26.31;26.02
46199;BME280;31928;52.104;10.030;2022-09-01T18:28:52;100986.44;;;26.07;26.40
46199;BME280;31928;52.104;10.030;2022-09-01T18:35:14;100983.59;;;25.99;26.26
46199;BME280;31928;52.104;10.030;2022-09-01T18:45:22;100984.59;;;25.47;26.83
46199;BME280;31928;52.104;10.030;2022-09-01T18:48:01;100992.22;;;25.32;27.19
46199;BME280;31928;52.104;10.030;2022-09-01T18:50:41;100997.31;;;25.20;27.10